Time;durP1;ratioP1;P1;durP2;ratioP2;P2;SDS_P1;SDS_P2;PMS_P1;PMS_P2;Temp;Humidity;BMP_temperature;BMP_pressure;BME280_temperature;BME280_humidity;BME280_pressure;Samples;Min_cycle;Max_cycle;Signal;HPM_P1;HPM_P2
2024/01/17 00:03:56;;;;;;;1.95;1.02;;;;;;;17.48;48.81;99973.25;10413988;28;20025;-56
2024/01/17 00:08:56;;;;;;;1.90;1.00;;;;;;;17.47;48.75;99967.13;10415130;28;20045;-55
2024/01/17 00:13:57;;;;;;;2.77;1.50;;;;;;;17.52;48.20;99958.97;10425901;28;20470;-55
2024/01/17 00:18:57;;;;;;;2.30;1.40;;;;;;;17.53;48.11;99943.66;10413885;28;20283;-54
2024/01/17 00:23:57;;;;;;;2.30;1.60;;;;;;;17.53;47.09;99935.63;10411813;28;20271;-54
2024/01/17 00:28:58;;;;;;;2.58;1.23;;;;;;;17.53;47.55;99931.06;10413653;28;20283;-56
2024/01/17 00:33:58;;;;;;;1.77;0.80;;;;;;;17.56;47.23;99928.84;10422708;28;20155;-55
2024/01/17 00:38:58;;;;;;;2.63;1.77;;;;;;;17.52;48.50;99925.97;10413350;28;20326;-56
2024/01/17 00:43:59;;;;;;;2.35;1.40;;;;;;;17.53;47.22;99914.97;10412466;28;20338;-54
2024/01/17 00:48:59;;;;;;;3.00;1.50;;;;;;;17.54;47.24;99900.47;10413053;28;20025;-55
2024/01/17 00:53:59;;;;;;;1.95;1.20;;;;;;;17.52;47.17;99907.22;10412251;28;20295;-55
2024/01/17 00:59:00;;;;;;;2.23;1.07;;;;;;;17.52;47.92;99893.81;10412411;28;20029;-53
2024/01/17 01:04:00;;;;;;;2.27;1.70;;;;;;;17.56;47.70;99881.41;10412040;28;20735;-54
2024/01/17 01:09:00;;;;;;;2.67;1.43;;;;;;;17.57;46.57;99874.16;10411819;28;20296;-55
2024/01/17 01:14:01;;;;;;;2.00;1.13;;;;;;;17.54;47.28;99872.88;10452697;28;20283;-54
2024/01/17 01:19:01;;;;;;;2.20;1.20;;;;;;;17.52;47.50;99857.13;10452658;28;20275;-55
2024/01/17 01:24:02;;;;;;;2.17;1.50;;;;;;;17.53;46.57;99844.50;10452179;28;20029;-55
2024/01/17 01:29:02;;;;;;;2.72;1.40;;;;;;;17.56;47.78;99837.72;10452408;28;20279;-56
2024/01/17 01:34:02;;;;;;;2.67;1.88;;;;;;;17.53;47.01;99828.41;10422748;28;20109;-55
2024/01/17 01:39:03;;;;;;;2.60;1.77;;;;;;;17.52;46.41;99824.94;10410083;28;20040;-55
2024/01/17 01:44:04;;;;;;;2.58;1.70;;;;;;;17.54;47.99;99827.31;10408882;28;20272;-56
2024/01/17 01:49:04;;;;;;;2.78;1.60;;;;;;;17.54;46.38;99828.09;10410420;28;20033;-55
2024/01/17 01:54:05;;;;;;;4.03;1.20;;;;;;;17.51;46.92;99817.19;10409247;28;20029;-55
2024/01/17 01:59:07;;;;;;;2.30;1.20;;;;;;;17.55;46.53;99820.84;10410141;28;20025;-54
2024/01/17 02:04:08;;;;;;;3.88;1.88;;;;;;;17.57;46.47;99812.50;10408206;28;20131;-56
2024/01/17 02:09:08;;;;;;;2.13;1.20;;;;;;;17.52;46.50;99811.53;10411977;28;20491;-53
2024/01/17 02:14:09;;;;;;;3.08;1.35;;;;;;;17.50;47.81;99811.03;10448746;28;20025;-56
2024/01/17 02:19:11;;;;;;;2.30;1.27;;;;;;;17.45;47.12;99797.78;10450480;28;20070;-55
2024/01/17 02:24:18;;;;;;;2.45;1.45;;;;;;;17.48;47.57;99788.34;10448794;28;20389;-55
2024/01/17 02:29:18;;;;;;;2.65;1.70;;;;;;;17.44;46.33;99771.31;10450100;28;20059;-56
2024/01/17 02:34:19;;;;;;;1.98;1.27;;;;;;;17.47;46.77;99762.63;10416058;28;20381;-55
2024/01/17 02:39:19;;;;;;;2.53;1.42;;;;;;;17.46;47.41;99745.78;10407826;28;20488;-56
2024/01/17 02:44:19;;;;;;;3.27;1.53;;;;;;;17.44;47.40;99733.78;10408188;28;20017;-54
2024/01/17 02:49:21;;;;;;;2.08;1.10;;;;;;;17.46;46.49;99715.50;10408564;28;20326;-55
2024/01/17 02:54:21;;;;;;;1.95;1.25;;;;;;;17.47;46.82;99703.69;10408045;28;20457;-54
2024/01/17 02:59:22;;;;;;;3.05;1.58;;;;;;;17.52;47.30;99704.34;10408327;28;20112;-54
2024/01/17 03:04:22;;;;;;;1.98;1.48;;;;;;;17.52;47.19;99696.28;10411188;28;20017;-54
2024/01/17 03:09:22;;;;;;;3.05;1.67;;;;;;;17.54;46.25;99696.78;10420781;28;20044;-55
2024/01/17 03:14:23;;;;;;;2.28;1.13;;;;;;;17.51;46.22;99694.69;10457178;28;20033;-55
2024/01/17 03:19:23;;;;;;;2.88;1.50;;;;;;;17.53;46.16;99683.69;10457381;28;20025;-55
2024/01/17 03:24:23;;;;;;;3.77;1.57;;;;;;;17.53;45.94;99676.44;10456907;28;20040;-55
2024/01/17 03:29:24;;;;;;;2.10;1.20;;;;;;;17.52;46.31;99676.72;10457294;28;20298;-53
2024/01/17 03:34:24;;;;;;;1.73;1.33;;;;;;;17.55;47.36;99660.03;10424668;28;20287;-54
2024/01/17 03:39:24;;;;;;;1.95;1.40;;;;;;;17.54;46.95;99655.78;10413662;28;20029;-53
2024/01/17 03:44:25;;;;;;;2.07;1.30;;;;;;;17.50;46.25;99642.19;10415136;28;20025;-54
2024/01/17 03:49:25;;;;;;;2.42;1.30;;;;;;;17.53;46.67;99627.41;10428254;28;20305;-54
2024/01/17 03:54:25;;;;;;;2.80;1.57;;;;;;;17.51;45.92;99603.56;10414737;28;20029;-55
2024/01/17 03:59:27;;;;;;;2.13;1.37;;;;;;;17.50;46.01;99587.81;10414220;28;20268;-55
2024/01/17 04:04:27;;;;;;;1.92;1.25;;;;;;;17.51;46.91;99566.06;10414507;28;20260;-55
2024/01/17 04:09:28;;;;;;;2.37;1.47;;;;;;;17.53;45.99;99568.44;10419038;28;20041;-54
2024/01/17 04:14:29;;;;;;;1.52;1.10;;;;;;;17.50;46.95;99553.75;10454813;28;20295;-55
2024/01/17 04:19:29;;;;;;;1.77;1.05;;;;;;;17.50;46.43;99551.06;10454770;28;20032;-53
2024/01/17 04:24:29;;;;;;;2.67;1.33;;;;;;;17.51;46.93;99539.25;10447115;28;20021;-55
2024/01/17 04:29:30;;;;;;;4.00;1.50;;;;;;;17.51;46.69;99549.97;10445850;28;20717;-55
2024/01/17 04:34:30;;;;;;;2.40;1.20;;;;;;;17.54;46.36;99530.59;10425323;28;20290;-55
2024/01/17 04:39:31;;;;;;;2.75;1.90;;;;;;;17.60;47.51;99509.75;10430096;28;20867;-53
2024/01/17 04:44:32;;;;;;;4.03;1.30;;;;;;;17.59;47.22;99497.47;10428374;28;20044;-55
2024/01/17 04:49:33;;;;;;;1.90;1.23;;;;;;;17.61;46.92;99484.53;10428727;28;20044;-54
2024/01/17 04:54:34;;;;;;;2.00;1.42;;;;;;;17.62;47.21;99475.38;10428392;28;20147;-54
2024/01/17 04:59:35;;;;;;;2.78;1.10;;;;;;;17.54;47.16;99466.28;10416704;28;20033;-55
2024/01/17 05:04:35;;;;;;;2.88;1.42;;;;;;;17.55;46.54;99453.66;10414609;28;20018;-53
2024/01/17 05:09:36;;;;;;;5.32;1.80;;;;;;;17.48;47.65;99458.72;10416973;28;20531;-53
2024/01/17 05:14:36;;;;;;;3.33;1.40;;;;;;;17.48;46.82;99454.13;10449036;28;20025;-53
2024/01/17 05:19:37;;;;;;;2.27;1.50;;;;;;;17.45;47.32;99445.94;10430812;28;20021;-54
2024/01/17 05:24:38;;;;;;;2.30;1.60;;;;;;;17.41;47.17;99437.00;10408153;28;20278;-54
2024/01/17 05:29:44;;;;;;;3.93;1.60;;;;;;;17.40;47.86;99414.72;10411773;28;20036;-53
2024/01/17 05:34:46;;;;;;;2.42;0.98;;;;;;;17.44;46.44;99399.63;10414647;28;20295;-53
2024/01/17 05:39:46;;;;;;;3.22;1.23;;;;;;;17.42;46.87;99391.13;10410292;28;20021;-54
2024/01/17 05:44:46;;;;;;;1.60;1.07;;;;;;;17.44;46.60;99401.50;10410791;28;20021;-52
2024/01/17 05:49:47;;;;;;;2.17;1.17;;;;;;;17.43;46.60;99395.38;10424854;28;20291;-53
2024/01/17 05:54:47;;;;;;;2.00;1.08;;;;;;;17.41;47.43;99386.06;10449099;28;20293;-54
2024/01/17 05:59:48;;;;;;;3.67;1.30;;;;;;;17.42;46.30;99358.97;10448096;28;20482;-53
2024/01/17 06:04:48;;;;;;;2.47;1.10;;;;;;;17.44;46.89;99355.94;10414942;28;20029;-55
2024/01/17 06:09:48;;;;;;;5.27;1.57;;;;;;;17.47;46.92;99345.38;10407977;28;20075;-53
2024/01/17 06:14:49;;;;;;;3.72;1.33;;;;;;;17.50;46.19;99335.91;10408908;28;20302;-54
2024/01/17 06:19:49;;;;;;;8.07;2.35;;;;;;;17.53;46.75;99338.75;10413809;28;20091;-52
2024/01/17 06:24:49;;;;;;;7.87;2.10;;;;;;;17.61;47.20;99325.59;10406277;28;20105;-55
2024/01/17 06:29:51;;;;;;;7.97;1.65;;;;;;;17.53;47.02;99319.97;10412202;28;20294;-55
2024/01/17 06:34:52;;;;;;;5.37;2.00;;;;;;;17.68;47.33;99315.97;10406166;28;20022;-53
2024/01/17 06:39:52;;;;;;;10.60;2.17;;;;;;;17.66;47.08;99314.72;10406167;28;20279;-54
2024/01/17 06:44:53;;;;;;;11.77;3.17;;;;;;;17.59;47.19;99303.72;10405770;28;20025;-52
2024/01/17 06:49:53;;;;;;;7.47;2.95;;;;;;;17.57;47.33;99298.69;10405278;28;20647;-52
2024/01/17 06:54:54;;;;;;;14.97;3.73;;;;;;;17.56;47.39;99294.44;10405304;28;20048;-54
2024/01/17 06:59:54;;;;;;;12.05;2.30;;;;;;;17.49;47.72;99289.56;10405003;28;20272;-53
2024/01/17 07:04:55;;;;;;;6.68;2.53;;;;;;;17.49;47.15;99268.13;10405469;28;20025;-60
2024/01/17 07:09:55;;;;;;;9.20;2.70;;;;;;;17.30;47.72;99267.75;10409937;28;20103;-53
2024/01/17 07:14:55;;;;;;;11.70;2.30;;;;;;;17.21;48.03;99258.97;10419161;28;20335;-56
2024/01/17 07:19:56;;;;;;;9.00;2.57;;;;;;;17.34;48.26;99249.91;10405342;28;20032;-53
2024/01/17 07:24:57;;;;;;;11.55;2.85;;;;;;;17.40;47.71;99239.78;10405359;28;20322;-54
2024/01/17 07:29:57;;;;;;;7.27;2.73;;;;;;;17.40;46.85;99245.94;10413037;28;20025;-54
2024/01/17 07:34:57;;;;;;;5.97;1.70;;;;;;;17.41;47.54;99239.50;10425738;28;20345;-54
2024/01/17 07:39:59;;;;;;;5.90;2.20;;;;;;;17.42;47.01;99218.84;10442254;28;20994;-53
2024/01/17 07:44:59;;;;;;;7.28;2.53;;;;;;;17.41;47.79;99215.38;10447899;28;20750;-55
2024/01/17 07:49:59;;;;;;;5.03;2.10;;;;;;;17.43;46.08;99209.69;10448313;28;20037;-54
2024/01/17 07:55:02;;;;;;;5.97;1.95;;;;;;;17.40;47.37;99205.75;10455668;28;20035;-54
2024/01/17 08:00:07;;;;;;;5.60;1.80;;;;;;;17.42;46.02;99214.25;10454941;28;20040;-54
2024/01/17 08:05:07;;;;;;;5.32;2.13;;;;;;;17.36;46.46;99180.72;10454835;28;20024;-54
2024/01/17 08:10:07;;;;;;;4.57;1.60;;;;;;;17.37;45.79;99182.28;10447869;28;20506;-54
2024/01/17 08:15:08;;;;;;;5.18;1.65;;;;;;;17.45;45.90;99169.97;10454255;28;20307;-55
2024/01/17 08:20:12;;;;;;;3.67;1.70;;;;;;;17.43;47.39;99164.16;10454170;28;20024;-54
2024/01/17 08:25:13;;;;;;;4.88;1.83;;;;;;;17.40;46.10;99151.38;10453779;28;20086;-55
2024/01/17 08:30:14;;;;;;;4.72;1.92;;;;;;;17.43;47.22;99138.13;10455858;28;20028;-54
2024/01/17 08:35:14;;;;;;;4.20;2.03;;;;;;;17.40;46.43;99130.72;10412968;28;20026;-53
2024/01/17 08:40:15;;;;;;;4.10;1.65;;;;;;;17.42;46.63;99128.53;10412158;28;20033;-52
2024/01/17 08:45:18;;;;;;;4.30;2.40;;;;;;;17.32;46.71;99123.56;10417394;28;20029;-53
2024/01/17 08:50:19;;;;;;;3.33;1.50;;;;;;;17.31;46.52;99119.31;10427637;28;20120;-52
2024/01/17 08:55:19;;;;;;;4.03;1.52;;;;;;;17.35;47.08;99098.00;10453060;28;20025;-55
2024/01/17 09:00:20;;;;;;;4.40;1.63;;;;;;;17.34;45.82;99105.25;10451523;28;20488;-54
2024/01/17 09:05:21;;;;;;;3.40;1.52;;;;;;;17.29;47.57;99105.47;10452486;28;20344;-52
2024/01/17 09:10:21;;;;;;;4.60;1.83;;;;;;;17.31;46.63;99102.44;10446078;28;20561;-55
2024/01/17 09:15:21;;;;;;;4.53;1.80;;;;;;;17.26;46.71;99098.03;10452275;28;20025;-54
2024/01/17 09:20:22;;;;;;;3.78;1.83;;;;;;;17.23;46.24;99088.00;10451485;28;20036;-54
2024/01/17 09:25:23;;;;;;;11.50;1.40;;;;;;;17.34;48.36;99083.03;10452044;28;20542;-53
2024/01/17 09:30:23;;;;;;;6.82;2.75;;;;;;;17.41;47.07;99072.59;10452151;28;20123;-53
2024/01/17 09:35:23;;;;;;;5.07;1.70;;;;;;;17.36;48.56;99076.22;10410312;28;20025;-49
2024/01/17 09:40:27;;;;;;;5.60;1.55;;;;;;;17.36;48.56;99060.16;10410026;28;20284;-51
2024/01/17 09:45:29;;;;;;;3.58;1.95;;;;;;;17.32;48.99;99055.78;10409598;28;20026;-52
2024/01/17 09:50:30;;;;;;;5.57;1.77;;;;;;;17.30;47.85;99055.34;10415925;28;20096;-49
2024/01/17 09:55:31;;;;;;;3.10;1.77;;;;;;;17.25;47.13;99046.38;10419936;28;20037;-52
2024/01/17 10:00:32;;;;;;;5.53;2.45;;;;;;;17.33;46.58;99060.81;10409050;28;20033;-55
2024/01/17 10:05:34;;;;;;;5.97;2.30;;;;;;;17.28;47.49;99058.31;10408214;28;20037;-53
2024/01/17 10:10:34;;;;;;;5.45;1.90;;;;;;;17.28;47.39;99052.19;10421086;28;20424;-53
2024/01/17 10:15:40;;;;;;;6.00;2.30;;;;;;;17.34;46.88;99037.50;10448282;28;20099;-54
2024/01/17 10:20:42;;;;;;;12.55;2.50;;;;;;;17.31;46.47;99030.13;10449523;28;20029;-54
2024/01/17 10:25:43;;;;;;;4.55;1.90;;;;;;;17.38;44.75;99012.38;10424195;28;20038;-54
2024/01/17 10:30:43;;;;;;;8.15;2.60;;;;;;;17.39;46.28;98997.88;10426496;28;20037;-54
2024/01/17 10:35:43;;;;;;;3.40;1.83;;;;;;;17.46;45.70;98995.47;10429201;28;20024;-54
2024/01/17 10:40:44;;;;;;;4.95;1.88;;;;;;;17.46;46.62;98987.41;10442719;28;20920;-52
2024/01/17 10:45:44;;;;;;;6.07;2.05;;;;;;;17.38;45.66;98979.47;10421587;28;20047;-54
2024/01/17 10:50:45;;;;;;;6.77;2.47;;;;;;;17.39;46.44;98979.13;10449058;28;20474;-53
2024/01/17 10:55:49;;;;;;;9.05;2.83;;;;;;;17.37;45.44;98962.59;10448149;28;20284;-54
2024/01/17 11:00:50;;;;;;;5.65;2.58;;;;;;;17.39;45.18;98964.94;10447456;28;20025;-53
2024/01/17 11:05:51;;;;;;;3.63;2.05;;;;;;;17.39;45.35;98955.00;10448712;28;20658;-53
2024/01/17 11:10:52;;;;;;;10.63;2.88;;;;;;;17.33;45.87;98960.91;10441870;28;20057;-54
2024/01/17 11:15:53;;;;;;;4.88;2.45;;;;;;;17.32;46.84;98943.28;10447603;28;20087;-53
2024/01/17 11:20:54;;;;;;;4.10;2.33;;;;;;;17.30;45.75;98937.47;10446665;28;20625;-52
2024/01/17 11:26:05;;;;;;;5.82;2.70;;;;;;;17.31;46.78;98920.28;10451313;28;20036;-52
2024/01/17 11:31:47;;;;;;;3.38;1.77;;;;;;;17.24;45.33;98910.88;10450593;28;20044;-50
2024/01/17 11:36:47;;;;;;;13.50;2.70;;;;;;;17.23;45.22;98901.28;10412122;28;20366;-53
2024/01/17 11:41:51;;;;;;;18.50;2.88;;;;;;;17.21;46.15;98892.81;10413541;28;20037;-53
2024/01/17 11:46:53;;;;;;;4.35;2.20;;;;;;;17.21;45.86;98898.16;10414223;28;20029;-52
2024/01/17 11:51:53;;;;;;;4.72;2.60;;;;;;;17.15;45.92;98885.28;10416753;28;20060;-51
2024/01/17 11:56:57;;;;;;;7.65;2.40;;;;;;;17.18;46.09;98876.63;10452422;28;20028;-53
2024/01/17 12:01:57;;;;;;;3.42;2.20;;;;;;;17.19;45.97;98864.78;10429543;28;20381;-54
2024/01/17 12:06:57;;;;;;;5.03;1.80;;;;;;;17.15;47.53;98855.84;10446675;28;20021;-49
2024/01/17 12:12:00;;;;;;;4.82;2.17;;;;;;;17.11;47.67;98852.25;10420246;28;20779;-52
2024/01/17 12:17:00;;;;;;;6.47;2.35;;;;;;;17.14;47.96;98846.22;10421244;28;20057;-51
2024/01/17 12:22:00;;;;;;;5.77;2.50;;;;;;;17.16;47.48;98828.72;10413578;28;20100;-49
2024/01/17 12:27:05;;;;;;;5.57;2.30;;;;;;;17.11;48.22;98806.72;10427571;28;20365;-54
2024/01/17 12:32:06;;;;;;;6.97;3.03;;;;;;;17.22;47.98;98802.53;10413555;28;20404;-53
2024/01/17 12:37:07;;;;;;;7.68;2.60;;;;;;;17.16;47.84;98790.44;10413244;28;20026;-52
2024/01/17 12:42:07;;;;;;;5.75;2.22;;;;;;;17.14;47.34;98776.59;10413257;28;20043;-53
2024/01/17 12:47:08;;;;;;;7.47;2.53;;;;;;;17.23;47.63;98762.00;10405513;28;20034;-52
2024/01/17 12:52:08;;;;;;;6.35;2.83;;;;;;;17.15;47.76;98765.56;10423009;28;20170;-50
2024/01/17 12:57:10;;;;;;;4.65;1.77;;;;;;;17.15;46.77;98754.84;10418572;28;20036;-48
2024/01/17 13:02:14;;;;;;;7.25;3.25;;;;;;;17.13;47.36;98753.63;10412442;28;20023;-53
2024/01/17 13:07:24;;;;;;;6.18;2.38;;;;;;;17.13;46.52;98743.69;10411530;28;20472;-53
2024/01/17 13:12:24;;;;;;;4.03;2.22;;;;;;;17.13;46.29;98746.38;10439969;28;20134;-52
2024/01/17 13:17:25;;;;;;;3.13;1.88;;;;;;;17.12;45.76;98744.03;10453667;28;20118;-52
2024/01/17 13:22:25;;;;;;;4.27;2.33;;;;;;;17.05;46.06;98735.75;10451672;28;20047;-53
2024/01/17 13:27:25;;;;;;;4.13;2.20;;;;;;;17.04;46.11;98734.97;10429392;28;20813;-53
2024/01/17 13:32:25;;;;;;;5.93;2.33;;;;;;;17.02;47.01;98731.06;10437149;28;20303;-53
2024/01/17 13:37:26;;;;;;;5.57;2.10;;;;;;;17.04;46.73;98720.81;10452761;28;20618;-52
2024/01/17 13:42:26;;;;;;;3.17;1.98;;;;;;;17.13;46.83;98726.84;10452119;28;20271;-53
2024/01/17 13:47:27;;;;;;;3.38;1.73;;;;;;;17.11;46.24;98718.38;10451635;28;20625;-52
2024/01/17 13:52:32;;;;;;;4.30;2.03;;;;;;;17.11;45.61;98718.38;10451629;28;20166;-51
2024/01/17 13:57:33;;;;;;;3.97;1.80;;;;;;;17.12;46.76;98712.69;10451899;28;20275;-53
2024/01/17 14:02:33;;;;;;;4.72;2.13;;;;;;;17.13;46.58;98713.47;10451309;28;20446;-52
2024/01/17 14:07:33;;;;;;;4.13;2.10;;;;;;;17.14;45.88;98706.97;10451290;28;20025;-53
2024/01/17 14:12:34;;;;;;;4.27;1.93;;;;;;;17.02;46.38;98699.72;10413258;28;20030;-53
2024/01/17 14:17:36;;;;;;;14.02;2.65;;;;;;;17.05;46.63;98693.72;10409729;28;20355;-54
2024/01/17 14:22:37;;;;;;;12.38;3.42;;;;;;;17.23;46.62;98697.72;10408347;28;20473;-53
2024/01/17 14:27:37;;;;;;;6.93;2.80;;;;;;;17.23;46.14;98696.94;10409235;28;20033;-55
2024/01/17 14:32:42;;;;;;;10.93;3.73;;;;;;;17.21;47.84;98693.81;10417564;28;20404;-56
2024/01/17 14:37:43;;;;;;;13.98;2.95;;;;;;;17.25;47.41;98692.03;10409205;28;20679;-54
2024/01/17 14:42:44;;;;;;;33.47;4.95;;;;;;;17.09;47.95;98685.78;10409302;28;20057;-54
2024/01/17 14:47:45;;;;;;;12.68;4.63;;;;;;;17.15;46.64;98689.78;10408560;28;20143;-53
2024/01/17 14:52:45;;;;;;;19.40;4.75;;;;;;;17.11;47.01;98684.34;10411289;28;20157;-51
2024/01/17 14:57:46;;;;;;;17.50;4.47;;;;;;;17.14;46.90;98690.91;10421674;28;20040;-54
2024/01/17 15:02:47;;;;;;;23.03;5.83;;;;;;;17.13;47.60;98684.78;10438747;28;20028;-55
2024/01/17 15:07:47;;;;;;;20.42;4.97;;;;;;;17.56;46.98;98686.09;10449451;28;20297;-53
2024/01/17 15:12:48;;;;;;;26.00;6.72;;;;;;;17.70;46.83;98683.09;10443182;28;20392;-55
2024/01/17 15:17:48;;;;;;;17.80;6.50;;;;;;;17.52;46.93;98686.00;10449255;28;20059;-55
2024/01/17 15:22:49;;;;;;;38.08;6.72;;;;;;;17.35;48.53;98672.06;10449694;28;20047;-55
2024/01/17 15:27:49;;;;;;;32.13;7.40;;;;;;;17.38;47.85;98672.16;10440172;28;20057;-54
2024/01/17 15:32:49;;;;;;;19.27;5.97;;;;;;;17.39;48.47;98673.72;10416936;28;20379;-53
2024/01/17 15:37:51;;;;;;;25.63;6.13;;;;;;;17.34;49.61;98681.22;10412344;28;20277;-54
2024/01/17 15:42:51;;;;;;;41.95;6.93;;;;;;;17.39;48.25;98679.06;10434414;28;20272;-56
2024/01/17 15:47:51;;;;;;;22.03;5.10;;;;;;;17.37;48.25;98680.53;10415242;28;20048;-54
2024/01/17 15:52:51;;;;;;;24.93;7.97;;;;;;;17.41;47.93;98679.53;10424290;28;20299;-55
2024/01/17 15:57:52;;;;;;;29.40;6.32;;;;;;;17.48;49.09;98681.63;10428296;28;20271;-56
2024/01/17 16:02:52;;;;;;;19.30;5.23;;;;;;;17.44;48.88;98675.41;10448556;28;20415;-56
2024/01/17 16:07:53;;;;;;;16.20;6.63;;;;;;;17.40;47.92;98682.53;10445422;28;20295;-55
2024/01/17 16:12:53;;;;;;;11.77;4.97;;;;;;;17.44;47.08;98684.22;10447504;28;20032;-55
2024/01/17 16:17:53;;;;;;;18.30;6.00;;;;;;;17.52;47.67;98685.19;10455504;28;20415;-56
2024/01/17 16:22:54;;;;;;;15.35;4.00;;;;;;;17.88;47.80;98699.66;10452886;28;20267;-57
2024/01/17 16:27:54;;;;;;;11.15;3.97;;;;;;;17.94;47.83;98701.78;10428011;28;20017;-56
2024/01/17 16:32:58;;;;;;;11.43;3.65;;;;;;;17.91;47.48;98710.50;10434079;28;20112;-56
2024/01/17 16:37:58;;;;;;;9.00;4.30;;;;;;;17.97;48.06;98711.03;10413526;28;20476;-56
2024/01/17 16:42:59;;;;;;;13.18;4.40;;;;;;;18.01;49.87;98706.59;10413600;28;20108;-57
2024/01/17 16:47:59;;;;;;;12.35;4.75;;;;;;;18.01;50.02;98710.03;10448432;28;20033;-53
2024/01/17 16:52:59;;;;;;;8.87;4.90;;;;;;;17.96;51.34;98702.22;10447601;28;20037;-53
2024/01/17 16:58:00;;;;;;;16.77;4.93;;;;;;;17.92;52.48;98704.03;10412788;28;20272;-53
2024/01/17 17:03:00;;;;;;;13.52;5.10;;;;;;;18.20;52.65;98701.34;10431979;28;20276;-56
2024/01/17 17:08:00;;;;;;;18.60;5.03;;;;;;;18.01;56.65;98698.53;10435217;28;20049;-55
2024/01/17 17:13:00;;;;;;;14.40;4.20;;;;;;;17.75;56.59;98705.06;10427438;28;20707;-54
2024/01/17 17:18:01;;;;;;;11.50;4.07;;;;;;;17.64;57.04;98713.88;10412180;28;20294;-55
2024/01/17 17:23:02;;;;;;;17.60;5.20;;;;;;;17.51;55.74;98711.22;10411368;28;20275;-54
2024/01/17 17:28:03;;;;;;;10.35;4.38;;;;;;;17.56;54.82;98715.56;10411727;28;20033;-52
2024/01/17 17:33:04;;;;;;;14.35;4.55;;;;;;;17.36;55.58;98725.28;10420334;28;20079;-53
2024/01/17 17:38:04;;;;;;;11.82;4.57;;;;;;;17.40;53.58;98720.81;10421958;28;20086;-53
2024/01/17 17:43:05;;;;;;;11.40;3.97;;;;;;;17.41;54.06;98727.75;10425505;28;20130;-54
2024/01/17 17:48:06;;;;;;;7.72;3.30;;;;;;;17.44;52.75;98742.38;10429056;28;20025;-54
2024/01/17 17:53:06;;;;;;;11.05;3.80;;;;;;;17.35;53.06;98744.38;10423429;28;20030;-53
2024/01/17 17:58:06;;;;;;;12.20;3.80;;;;;;;17.35;52.93;98739.81;10421685;28;20039;-53
2024/01/17 18:03:06;;;;;;;9.20;3.97;;;;;;;17.28;51.97;98744.94;10426802;28;20295;-52
2024/01/17 18:08:09;;;;;;;7.10;3.50;;;;;;;17.30;52.94;98758.00;10438768;28;20318;-54
2024/01/17 18:13:09;;;;;;;9.23;3.22;;;;;;;17.24;51.35;98760.88;10426300;28;20299;-54
2024/01/17 18:18:11;;;;;;;6.60;3.88;;;;;;;17.20;51.54;98776.06;10415620;28;20133;-53
2024/01/17 18:23:13;;;;;;;11.23;3.40;;;;;;;17.17;51.04;98768.72;10436463;28;20036;-53
2024/01/17 18:28:13;;;;;;;5.93;3.55;;;;;;;17.14;51.40;98772.03;10414192;28;20029;-52
2024/01/17 18:33:14;;;;;;;9.07;3.75;;;;;;;17.16;50.20;98771.69;10426173;28;20080;-51
2024/01/17 18:38:14;;;;;;;10.67;4.33;;;;;;;17.17;50.08;98774.06;10423241;28;20048;-52
2024/01/17 18:43:15;;;;;;;11.30;2.85;;;;;;;17.15;49.71;98778.94;10421105;28;20710;-53
2024/01/17 18:48:15;;;;;;;10.17;3.47;;;;;;;17.19;50.00;98789.81;10437434;28;20056;-53
2024/01/17 18:53:16;;;;;;;11.52;3.42;;;;;;;17.21;50.69;98788.34;10421347;28;20291;-54
2024/01/17 18:58:16;;;;;;;27.45;4.47;;;;;;;17.20;50.75;98794.81;10403312;28;20041;-52
2024/01/17 19:03:18;;;;;;;8.90;3.40;;;;;;;17.34;49.32;98793.72;10420588;28;20058;-52
2024/01/17 19:08:19;;;;;;;8.48;3.38;;;;;;;17.32;49.60;98802.09;10418311;28;20049;-53
2024/01/17 19:13:19;;;;;;;8.77;3.38;;;;;;;17.36;50.36;98804.88;10425217;28;20055;-53
2024/01/17 19:18:19;;;;;;;11.70;3.90;;;;;;;17.30;48.85;98815.03;10414617;28;20037;-53
2024/01/17 19:23:20;;;;;;;6.23;3.83;;;;;;;17.36;48.48;98828.97;10407451;28;20282;-53
2024/01/17 19:28:20;;;;;;;4.77;2.80;;;;;;;17.34;49.45;98829.31;10417496;28;20275;-52
2024/01/17 19:33:20;;;;;;;7.80;3.20;;;;;;;17.35;49.75;98833.56;10415297;28;20292;-54
2024/01/17 19:38:21;;;;;;;6.93;3.27;;;;;;;17.34;48.65;98823.97;10407451;28;20288;-54
2024/01/17 19:43:22;;;;;;;7.33;3.13;;;;;;;17.34;48.08;98829.31;10406504;28;20272;-55
2024/01/17 19:48:22;;;;;;;5.65;3.20;;;;;;;17.48;49.47;98829.78;10419041;28;20283;-55
2024/01/17 19:53:23;;;;;;;5.60;3.35;;;;;;;17.55;49.58;98850.69;10434735;28;20096;-54
2024/01/17 19:58:23;;;;;;;7.05;3.45;;;;;;;17.51;49.41;98853.22;10424892;28;20033;-54
2024/01/17 20:03:25;;;;;;;6.30;4.03;;;;;;;17.48;49.04;98853.91;10430659;28;20043;-54
2024/01/17 20:08:26;;;;;;;6.85;3.35;;;;;;;17.50;50.19;98866.97;10431249;28;20303;-55
2024/01/17 20:13:26;;;;;;;6.78;3.70;;;;;;;17.50;49.22;98869.63;10447701;28;20033;-54
2024/01/17 20:18:26;;;;;;;8.67;3.43;;;;;;;17.47;49.90;98868.41;10455596;28;20029;-55
2024/01/17 20:23:26;;;;;;;4.80;3.10;;;;;;;17.51;49.24;98871.97;10437553;28;20346;-54
2024/01/17 20:28:27;;;;;;;6.83;4.43;;;;;;;17.50;49.55;98883.81;10429651;28;20280;-53
2024/01/17 20:33:27;;;;;;;9.63;3.60;;;;;;;17.55;48.24;98912.31;10432131;28;20331;-53
2024/01/17 20:38:28;;;;;;;6.40;3.30;;;;;;;17.50;48.56;98912.50;10426721;28;20304;-54
2024/01/17 20:43:28;;;;;;;7.20;3.53;;;;;;;17.48;48.78;98914.75;10417497;28;20315;-54
2024/01/17 20:48:29;;;;;;;5.25;4.13;;;;;;;17.47;48.80;98919.31;10428329;28;20472;-54
2024/01/17 20:53:29;;;;;;;6.00;3.20;;;;;;;17.47;48.55;98921.22;10429274;28;20468;-53
2024/01/17 20:58:30;;;;;;;6.45;3.80;;;;;;;17.44;47.50;98935.28;10425350;28;20299;-54
2024/01/17 21:03:30;;;;;;;6.40;3.50;;;;;;;17.45;48.42;98939.53;10423116;28;20017;-53
2024/01/17 21:08:31;;;;;;;6.03;3.70;;;;;;;17.46;47.33;98946.44;10410826;28;20327;-53
2024/01/17 21:13:31;;;;;;;6.10;2.75;;;;;;;17.46;46.96;98959.84;10450458;28;20286;-52
2024/01/17 21:18:31;;;;;;;5.68;3.33;;;;;;;17.45;48.16;98956.38;10453568;28;20029;-53
2024/01/17 21:23:32;;;;;;;3.97;2.73;;;;;;;17.49;48.34;98968.00;10413206;28;20022;-54
2024/01/17 21:28:33;;;;;;;5.95;3.30;;;;;;;17.51;47.22;98971.13;10411927;28;20624;-53
2024/01/17 21:33:33;;;;;;;5.65;3.75;;;;;;;17.52;46.37;98978.06;10420188;28;20079;-54
2024/01/17 21:38:33;;;;;;;4.67;3.20;;;;;;;17.51;47.61;98975.69;10411574;28;20037;-54
2024/01/17 21:43:34;;;;;;;5.97;3.13;;;;;;;17.57;47.62;98976.28;10412062;28;20264;-53
2024/01/17 21:48:34;;;;;;;6.37;3.47;;;;;;;17.53;47.06;98974.28;10411406;28;20288;-54
2024/01/17 21:53:34;;;;;;;3.97;3.00;;;;;;;17.55;46.94;98984.66;10411280;28;20292;-53
2024/01/17 21:58:35;;;;;;;5.13;3.33;;;;;;;17.52;46.01;98985.31;10410971;28;20036;-54
2024/01/17 22:03:35;;;;;;;14.18;4.22;;;;;;;17.54;46.33;98985.78;10410671;28;20318;-54
2024/01/17 22:08:36;;;;;;;5.13;3.15;;;;;;;17.50;45.78;98985.63;10408885;28;20105;-54
2024/01/17 22:13:37;;;;;;;5.00;3.25;;;;;;;17.49;46.80;99000.16;10448834;28;20809;-55
2024/01/17 22:18:37;;;;;;;4.65;3.00;;;;;;;17.50;46.48;99009.75;10451697;28;20021;-54
2024/01/17 22:23:37;;;;;;;5.72;3.42;;;;;;;17.54;46.56;99012.59;10451119;28;20021;-55
2024/01/17 22:28:38;;;;;;;5.07;2.97;;;;;;;17.54;45.77;99024.09;10450594;28;20110;-53
2024/01/17 22:33:38;;;;;;;7.57;3.57;;;;;;;17.61;45.57;99025.44;10424353;28;20377;-53
2024/01/17 22:38:38;;;;;;;4.35;3.08;;;;;;;17.63;45.90;99033.91;10409503;28;20272;-54
2024/01/17 22:43:38;;;;;;;6.70;3.87;;;;;;;17.59;45.66;99036.47;10409343;28;20044;-54
2024/01/17 22:48:39;;;;;;;3.93;2.90;;;;;;;17.54;45.50;99042.84;10409457;28;20621;-54
2024/01/17 22:53:39;;;;;;;4.60;3.13;;;;;;;17.57;46.28;99038.72;10408780;28;20409;-54
2024/01/17 22:58:39;;;;;;;6.30;3.07;;;;;;;17.61;45.68;99038.84;10409064;28;20287;-55
2024/01/17 23:03:42;;;;;;;5.45;3.30;;;;;;;17.59;44.95;99047.19;10408922;28;20723;-54
2024/01/17 23:08:42;;;;;;;4.93;3.17;;;;;;;17.59;45.06;99065.19;10408946;28;20073;-55
2024/01/17 23:13:42;;;;;;;4.72;3.65;;;;;;;17.62;45.11;99059.16;10448240;28;20029;-54
2024/01/17 23:18:43;;;;;;;5.47;2.80;;;;;;;17.59;45.40;99078.59;10449632;28;20025;-53